createdAt,value
2022-08-28T00:02:24.034Z,97825.70
2022-08-28T00:05:31.334Z,97822.45
2022-08-28T00:08:34.636Z,97822.38
2022-08-28T00:11:37.856Z,97819.81
2022-08-28T00:14:40.978Z,97820.13
2022-08-28T00:17:44.052Z,97823.61
2022-08-28T00:20:47.848Z,97821.89
2022-08-28T00:23:51.094Z,97820.58
2022-08-28T00:27:32.481Z,97819.39
2022-08-28T00:30:40.203Z,97821.04
2022-08-28T00:33:43.386Z,97818.56
2022-08-28T00:36:46.249Z,97820.63
2022-08-28T00:39:49.419Z,97820.63
2022-08-28T00:42:52.314Z,97815.72
2022-08-28T00:45:55.195Z,97813.07
2022-08-28T00:48:58.119Z,97812.83
2022-08-28T00:52:12.537Z,97811.20
2022-08-28T00:55:19.203Z,97808.89
2022-08-28T00:58:22.293Z,97805.55
2022-08-28T01:01:25.324Z,97806.44
2022-08-28T01:04:32.366Z,97804.02
2022-08-28T01:07:38.228Z,97804.17
2022-08-28T01:10:45.880Z,97805.52
2022-08-28T01:13:51.266Z,97805.64
2022-08-28T01:16:58.034Z,97806.47
2022-08-28T01:20:06.973Z,97809.55
2022-08-28T01:23:23.645Z,97804.77
2022-08-28T01:26:28.382Z,97803.29
2022-08-28T01:29:31.577Z,97803.54
2022-08-28T01:32:38.471Z,97810.63
2022-08-28T01:35:44.755Z,97807.34
2022-08-28T01:38:50.541Z,97808.14
2022-08-28T01:41:55.964Z,97812.64
2022-08-28T01:44:59.236Z,97816.19
2022-08-28T01:48:02.337Z,97810.27
2022-08-28T01:51:06.485Z,97813.55
2022-08-28T01:54:10.733Z,97818.27
2022-08-28T01:57:14.982Z,97826.25
2022-08-28T02:00:28.814Z,97831.66
2022-08-28T02:03:33.518Z,97830.61
2022-08-28T02:06:37.928Z,97831.73
2022-08-28T02:09:41.266Z,97828.52
2022-08-28T02:12:44.210Z,97835.38
2022-08-28T02:15:47.223Z,97838.25
2022-08-28T02:18:50.165Z,97837.18
2022-08-28T02:21:53.118Z,97833.80
2022-08-28T02:24:56.011Z,97831.80
2022-08-28T02:27:59.500Z,97833.14
2022-08-28T02:31:02.687Z,97834.56
2022-08-28T02:34:06.030Z,97832.93
2022-08-28T02:37:11.450Z,97830.88
2022-08-28T02:40:16.778Z,97831.79
2022-08-28T02:43:19.803Z,97828.02
2022-08-28T02:46:23.295Z,97831.69
2022-08-28T02:49:26.660Z,97832.38
2022-08-28T02:52:43.982Z,97827.66
2022-08-28T02:55:46.838Z,97829.59
2022-08-28T02:58:49.660Z,97831.91
2022-08-28T03:01:53.361Z,97836.33
2022-08-28T03:04:56.308Z,97833.67
2022-08-28T03:07:59.814Z,97835.46
2022-08-28T03:11:02.688Z,97839.40
2022-08-28T03:14:05.595Z,97841.30
2022-08-28T03:17:08.654Z,97842.33
2022-08-28T03:20:13.557Z,97841.90
2022-08-28T03:23:28.430Z,97836.64
2022-08-28T03:26:31.546Z,97837.45
2022-08-28T03:29:35.765Z,97832.55
2022-08-28T03:32:38.639Z,97831.27
2022-08-28T03:35:41.587Z,97825.22
2022-08-28T03:38:45.018Z,97823.58
2022-08-28T03:41:47.913Z,97821.80
2022-08-28T03:44:51.550Z,97818.86
2022-08-28T03:47:54.428Z,97815.73
2022-08-28T03:50:58.454Z,97816.15
2022-08-28T03:54:02.412Z,97819.98
2022-08-28T03:57:05.288Z,97820.77
2022-08-28T04:00:12.310Z,97822.71
2022-08-28T04:03:15.552Z,97831.29
2022-08-28T04:06:21.044Z,97833.27
2022-08-28T04:09:24.116Z,97838.22
2022-08-28T04:12:27.068Z,97841.60
2022-08-28T04:15:30.513Z,97849.92
2022-08-28T04:18:34.025Z,97858.89
2022-08-28T04:21:36.951Z,97865.82
2022-08-28T04:24:39.828Z,97867.92
2022-08-28T04:27:42.832Z,97870.48
2022-08-28T04:30:46.414Z,97876.80
2022-08-28T04:33:49.317Z,97879.17
2022-08-28T04:36:52.763Z,97881.64
2022-08-28T04:39:56.117Z,97876.05
2022-08-28T04:42:59.088Z,97870.11
2022-08-28T04:46:08.077Z,97869.45
2022-08-28T04:49:12.192Z,97872.11
2022-08-28T04:52:15.184Z,97875.66
2022-08-28T04:55:18.210Z,97870.74
2022-08-28T04:58:34.419Z,97869.38
2022-08-28T05:01:37.498Z,97871.40
2022-08-28T05:04:40.990Z,97866.42
2022-08-28T05:07:44.998Z,97864.02
2022-08-28T05:10:48.832Z,97863.88
2022-08-28T05:13:52.786Z,97864.88
2022-08-28T05:16:57.854Z,97864.46
2022-08-28T05:20:00.743Z,97860.67
2022-08-28T05:23:04.973Z,97855.25
2022-08-28T05:26:12.620Z,97859.41
2022-08-28T05:29:16.919Z,97860.11
2022-08-28T05:32:20.839Z,97862.05
2022-08-28T05:35:24.973Z,97864.80
2022-08-28T05:38:28.633Z,97862.16
2022-08-28T05:41:32.383Z,97861.05
2022-08-28T05:44:35.323Z,97859.23
2022-08-28T05:47:39.043Z,97860.73
2022-08-28T05:50:47.341Z,97861.90
2022-08-28T05:53:51.743Z,97863.33
2022-08-28T05:56:54.908Z,97865.54
2022-08-28T05:59:57.757Z,97870.64
2022-08-28T06:03:00.598Z,97877.86
2022-08-28T06:06:04.513Z,97875.55
2022-08-28T06:09:13.489Z,97875.92
2022-08-28T06:12:16.763Z,97873.67
2022-08-28T06:15:20.960Z,97868.32
2022-08-28T06:18:25.540Z,97869.96
2022-08-28T06:21:29.481Z,97876.00
2022-08-28T06:24:34.035Z,97871.45
2022-08-28T06:27:39.348Z,97872.77
2022-08-28T06:30:57.351Z,97871.36
2022-08-28T06:34:06.740Z,97878.11
2022-08-28T06:37:10.375Z,97881.23
2022-08-28T06:40:14.213Z,97879.61
2022-08-28T06:43:18.532Z,97877.00
2022-08-28T06:46:22.005Z,97878.80
2022-08-28T06:49:25.256Z,97882.23
2022-08-28T06:52:28.151Z,97878.81
2022-08-28T06:55:31.006Z,97874.03
2022-08-28T06:58:40.704Z,97876.73
2022-08-28T07:01:43.619Z,97874.15
2022-08-28T07:04:50.369Z,97871.84
2022-08-28T07:07:53.521Z,97869.05
2022-08-28T07:10:58.548Z,97866.52
2022-08-28T07:14:02.247Z,97865.60
2022-08-28T07:17:07.351Z,97870.70
2022-08-28T07:20:11.563Z,97869.73
2022-08-28T07:23:14.471Z,97872.48
2022-08-28T07:26:20.886Z,97870.30
2022-08-28T07:29:23.871Z,97868.27
2022-08-28T07:32:26.923Z,97867.73
2022-08-28T07:35:29.841Z,97871.27
2022-08-28T07:38:32.807Z,97872.48
2022-08-28T07:41:39.339Z,97874.48
2022-08-28T07:44:51.159Z,97881.48
2022-08-28T07:47:54.058Z,97883.71
2022-08-28T07:50:57.113Z,97884.88
2022-08-28T07:54:00.026Z,97885.00
2022-08-28T07:57:04.567Z,97886.10
2022-08-28T08:00:08.224Z,97884.03
2022-08-28T08:03:15.060Z,97877.31
2022-08-28T08:06:17.982Z,97868.90
2022-08-28T08:09:21.307Z,97866.55
2022-08-28T08:12:25.157Z,97872.79
2022-08-28T08:15:34.059Z,97884.35
2022-08-28T08:18:38.092Z,97892.48
2022-08-28T08:21:43.574Z,97889.52
2022-08-28T08:24:46.409Z,97894.36
2022-08-28T08:27:50.817Z,97897.23
2022-08-28T08:31:14.789Z,97895.16
2022-08-28T08:34:17.654Z,97898.70
2022-08-28T08:37:20.612Z,97899.17
2022-08-28T08:40:23.690Z,97898.00
2022-08-28T08:43:29.623Z,97902.95
2022-08-28T08:46:41.166Z,97899.86
2022-08-28T08:49:57.253Z,97894.73
2022-08-28T08:53:24.589Z,97891.48
2022-08-28T08:56:35.036Z,97896.02
2022-08-28T08:59:40.030Z,97897.89
2022-08-28T09:03:02.635Z,97902.91
2022-08-28T09:06:10.745Z,97902.98
2022-08-28T09:09:35.220Z,97904.84
2022-08-28T09:13:15.871Z,97910.11
2022-08-28T09:16:32.457Z,97914.16
2022-08-28T09:19:35.519Z,97915.00
2022-08-28T09:22:43.763Z,97920.38
2022-08-28T09:25:51.949Z,97920.33
2022-08-28T09:29:16.694Z,97917.40
2022-08-28T09:32:19.636Z,97920.48
2022-08-28T09:35:34.672Z,97917.87
2022-08-28T09:38:39.113Z,97918.95
2022-08-28T09:42:14.226Z,97924.58
2022-08-28T09:45:23.037Z,97930.63
2022-08-28T09:48:43.885Z,97928.67
2022-08-28T09:51:46.756Z,97924.81
2022-08-28T09:54:50.999Z,97925.83
2022-08-28T09:57:55.820Z,97926.23
2022-08-28T10:01:08.492Z,97923.08
2022-08-28T10:04:38.271Z,97925.82
2022-08-28T10:08:04.527Z,97924.25
2022-08-28T10:11:31.895Z,97924.95
2022-08-28T10:14:43.779Z,97929.31
2022-08-28T10:18:07.664Z,97928.33
2022-08-28T10:21:13.440Z,97932.79
2022-08-28T10:24:43.129Z,97929.05
2022-08-28T10:27:55.912Z,97927.91
2022-08-28T10:31:23.079Z,97930.82
2022-08-28T10:34:44.431Z,97934.60
2022-08-28T10:37:59.721Z,97933.55
2022-08-28T10:41:10.333Z,97930.52
2022-08-28T10:44:20.054Z,97930.15
2022-08-28T10:47:25.735Z,97931.95
2022-08-28T10:50:47.075Z,97925.89
2022-08-28T10:53:58.351Z,97931.38
2022-08-28T10:57:19.767Z,97930.91
2022-08-28T11:00:25.176Z,97929.63
2022-08-28T11:03:35.423Z,97926.17
2022-08-28T11:06:47.980Z,97922.45
2022-08-28T11:09:51.087Z,97926.11
2022-08-28T11:12:54.047Z,97917.23
2022-08-28T11:15:57.070Z,97915.09
2022-08-28T11:19:20.180Z,97911.92
2022-08-28T11:22:34.958Z,97904.80
2022-08-28T11:25:50.227Z,97903.18
2022-08-28T11:28:53.278Z,97903.98
2022-08-28T11:32:31.798Z,97908.23
2022-08-28T11:35:49.962Z,97910.73
2022-08-28T11:38:55.771Z,97909.49
2022-08-28T11:42:10.900Z,97907.92
2022-08-28T11:45:42.564Z,97909.46
2022-08-28T11:48:54.913Z,97911.47
2022-08-28T11:52:05.250Z,97909.24
2022-08-28T11:55:25.334Z,97909.55
2022-08-28T11:59:02.170Z,97906.33
2022-08-28T12:02:34.156Z,97902.79
2022-08-28T12:05:46.115Z,97902.39
2022-08-28T12:08:49.035Z,97899.26
2022-08-28T12:12:00.813Z,97895.25
2022-08-28T12:15:08.497Z,97896.50
2022-08-28T12:18:11.740Z,97892.08
2022-08-28T12:21:20.969Z,97892.02
2022-08-28T12:24:24.630Z,97890.61
2022-08-28T12:27:29.452Z,97888.31
2022-08-28T12:30:41.661Z,97888.05
2022-08-28T12:33:57.589Z,97888.58
2022-08-28T12:37:02.867Z,97887.20
2022-08-28T12:40:08.893Z,97892.26
2022-08-28T12:43:15.330Z,97897.46
2022-08-28T12:46:25.838Z,97898.84
2022-08-28T12:49:36.120Z,97899.13
2022-08-28T12:52:48.572Z,97904.39
2022-08-28T12:55:51.887Z,97905.77
2022-08-28T12:58:55.000Z,97903.80
2022-08-28T13:02:12.291Z,97900.34
2022-08-28T13:05:39.695Z,97899.77
2022-08-28T13:08:42.721Z,97899.42
2022-08-28T13:11:49.183Z,97893.38
2022-08-28T13:14:52.570Z,97894.31
2022-08-28T13:17:55.726Z,97890.27
2022-08-28T13:21:33.233Z,97887.35
2022-08-28T13:24:42.463Z,97897.55
2022-08-28T13:27:45.634Z,97900.38
2022-08-28T13:30:58.352Z,97907.08
2022-08-28T13:34:16.472Z,97911.55
2022-08-28T13:37:41.015Z,97923.39
2022-08-28T13:40:59.426Z,97935.15
2022-08-28T13:44:02.768Z,97940.11
2022-08-28T13:47:07.119Z,97939.67
2022-08-28T13:50:10.012Z,97937.05
2022-08-28T13:53:13.638Z,97933.11
2022-08-28T13:56:17.303Z,97937.00
2022-08-28T13:59:20.769Z,97941.89
2022-08-28T14:02:42.212Z,97943.91
2022-08-28T14:05:45.284Z,97938.46
2022-08-28T14:08:48.146Z,97934.19
2022-08-28T14:11:51.037Z,97932.18
2022-08-28T14:14:54.002Z,97930.54
2022-08-28T14:17:57.518Z,97932.73
2022-08-28T14:21:00.588Z,97934.99
2022-08-28T14:24:04.432Z,97933.19
2022-08-28T14:27:07.582Z,97933.26
2022-08-28T14:30:11.431Z,97937.24
2022-08-28T14:33:16.967Z,97939.35
2022-08-28T14:36:26.538Z,97942.35
2022-08-28T14:39:31.070Z,97940.57
2022-08-28T14:42:34.372Z,97942.00
2022-08-28T14:45:49.652Z,97948.98
2022-08-28T14:48:52.641Z,97949.96
2022-08-28T14:51:57.069Z,97949.89
2022-08-28T14:54:59.999Z,97957.21
2022-08-28T14:58:02.951Z,97961.50
2022-08-28T15:01:06.265Z,97963.46
2022-08-28T15:04:15.953Z,97967.70
2022-08-28T15:07:21.283Z,97971.45
2022-08-28T15:10:24.610Z,97976.25
2022-08-28T15:13:31.421Z,97982.77
2022-08-28T15:16:39.253Z,97982.58
2022-08-28T15:19:42.326Z,97988.89
2022-08-28T15:22:45.305Z,97992.53
2022-08-28T15:25:48.820Z,97997.14
2022-08-28T15:28:55.736Z,97997.42
2022-08-28T15:31:59.128Z,98002.48
2022-08-28T15:35:02.347Z,97999.60
2022-08-28T15:38:07.148Z,97999.91
2022-08-28T15:41:24.968Z,97999.88
2022-08-28T15:44:28.200Z,97997.13
2022-08-28T15:47:31.162Z,97992.86
2022-08-28T15:50:34.501Z,97992.38
2022-08-28T15:53:38.172Z,97992.25
2022-08-28T15:56:41.737Z,97994.86
2022-08-28T15:59:49.722Z,98002.33
2022-08-28T16:02:59.834Z,98002.95
2022-08-28T16:06:04.218Z,98005.59
2022-08-28T16:09:09.648Z,98005.44
2022-08-28T16:12:12.729Z,98003.96
2022-08-28T16:15:20.680Z,98001.48
2022-08-28T16:18:24.186Z,97998.26
2022-08-28T16:21:28.149Z,97994.38
2022-08-28T16:24:31.188Z,97990.28
2022-08-28T16:27:34.223Z,97992.63
2022-08-28T16:30:43.983Z,97992.76
2022-08-28T16:33:48.058Z,97992.50
2022-08-28T16:36:50.965Z,97992.56
2022-08-28T16:39:55.004Z,97995.23
2022-08-28T16:42:58.178Z,97997.61
2022-08-28T16:46:01.015Z,97997.32
2022-08-28T16:49:06.207Z,98002.98
2022-08-28T16:52:10.215Z,98006.52
2022-08-28T16:55:14.962Z,98004.66
2022-08-28T16:58:18.307Z,98006.90
2022-08-28T17:01:23.929Z,98005.85
2022-08-28T17:04:27.436Z,98009.77
2022-08-28T17:07:30.778Z,98013.00
2022-08-28T17:10:35.909Z,98018.59
2022-08-28T17:13:39.939Z,98024.48
2022-08-28T17:16:43.175Z,98016.23
2022-08-28T17:19:46.565Z,98023.94
2022-08-28T17:22:49.960Z,98027.65
2022-08-28T17:25:52.909Z,98029.23
2022-08-28T17:28:55.860Z,98032.02
2022-08-28T17:31:59.272Z,98031.00
2022-08-28T17:35:02.537Z,98030.95
2022-08-28T17:38:05.482Z,98031.40
2022-08-28T17:41:09.171Z,98033.52
2022-08-28T17:44:12.587Z,98035.33
2022-08-28T17:47:15.801Z,98033.96
2022-08-28T17:50:18.888Z,98037.35
2022-08-28T17:53:27.177Z,98035.77
2022-08-28T17:56:36.156Z,98034.73
2022-08-28T17:59:39.757Z,98033.95
2022-08-28T18:02:44.754Z,98029.26
2022-08-28T18:05:47.671Z,98031.52
2022-08-28T18:08:51.976Z,98035.60
2022-08-28T18:11:55.409Z,98035.83
2022-08-28T18:15:01.748Z,98043.21
2022-08-28T18:18:04.961Z,98044.75
2022-08-28T18:21:13.192Z,98048.98
2022-08-28T18:24:17.577Z,98052.27
2022-08-28T18:27:22.495Z,98057.54
2022-08-28T18:30:26.003Z,98066.52
2022-08-28T18:33:31.359Z,98066.20
2022-08-28T18:36:36.641Z,98067.10
2022-08-28T18:39:40.219Z,98069.01
2022-08-28T18:42:45.739Z,98072.28
2022-08-28T18:45:49.228Z,98077.42
2022-08-28T18:48:54.783Z,98077.98
2022-08-28T18:51:58.782Z,98081.58
2022-08-28T18:55:05.202Z,98081.09
2022-08-28T18:58:11.135Z,98083.23
2022-08-28T19:01:18.904Z,98086.88
2022-08-28T19:04:22.435Z,98088.83
2022-08-28T19:07:25.443Z,98092.61
2022-08-28T19:10:33.855Z,98092.58
2022-08-28T19:13:38.930Z,98092.26
2022-08-28T19:16:42.837Z,98093.45
2022-08-28T19:19:46.075Z,98091.14
2022-08-28T19:22:49.527Z,98093.14
2022-08-28T19:25:52.937Z,98095.17
2022-08-28T19:28:57.313Z,98098.30
2022-08-28T19:32:00.718Z,98100.66
2022-08-28T19:35:04.179Z,98102.48
2022-08-28T19:38:07.196Z,98105.19
2022-08-28T19:41:12.036Z,98102.69
2022-08-28T19:44:15.203Z,98104.78
2022-08-28T19:47:19.541Z,98106.89
2022-08-28T19:50:22.527Z,98115.19
2022-08-28T19:53:25.829Z,98116.39
2022-08-28T19:56:31.639Z,98122.52
2022-08-28T19:59:35.711Z,98121.89
2022-08-28T20:02:38.747Z,98129.14
2022-08-28T20:05:41.871Z,98135.58
2022-08-28T20:08:44.822Z,98136.89
2022-08-28T20:11:49.135Z,98142.09
2022-08-28T20:14:52.341Z,98140.80
2022-08-28T20:17:55.683Z,98140.19
2022-08-28T20:20:58.529Z,98143.05
2022-08-28T20:24:01.945Z,98142.77
2022-08-28T20:27:06.539Z,98146.50
2022-08-28T20:30:11.489Z,98145.08
2022-08-28T20:33:14.472Z,98147.33
2022-08-28T20:36:21.370Z,98151.17
2022-08-28T20:39:24.726Z,98150.11
2022-08-28T20:42:31.778Z,98154.73
2022-08-28T20:45:34.978Z,98156.06
2022-08-28T20:48:38.508Z,98158.35
2022-08-28T20:52:15.952Z,98157.61
2022-08-28T20:55:19.001Z,98165.18
2022-08-28T20:58:23.006Z,98163.04
2022-08-28T21:01:25.910Z,98162.21
2022-08-28T21:04:30.380Z,98159.23
2022-08-28T21:07:35.277Z,98159.34
2022-08-28T21:10:40.584Z,98161.77
2022-08-28T21:13:43.578Z,98160.21
2022-08-28T21:16:47.043Z,98156.54
2022-08-28T21:19:50.908Z,98156.85
2022-08-28T21:22:53.873Z,98156.11
2022-08-28T21:25:56.783Z,98160.77
2022-08-28T21:28:59.725Z,98158.91
2022-08-28T21:32:03.035Z,98159.90
2022-08-28T21:35:08.109Z,98158.85
2022-08-28T21:38:11.148Z,98158.08
2022-08-28T21:41:15.227Z,98162.50
2022-08-28T21:44:18.840Z,98161.72
2022-08-28T21:47:23.659Z,98164.21
2022-08-28T21:50:29.529Z,98168.58
2022-08-28T21:53:32.891Z,98167.61
2022-08-28T21:56:35.833Z,98172.06
2022-08-28T21:59:39.093Z,98175.54
2022-08-28T22:02:42.197Z,98172.81
2022-08-28T22:05:47.284Z,98174.48
2022-08-28T22:08:51.053Z,98170.87
2022-08-28T22:11:54.015Z,98169.99
2022-08-28T22:14:57.015Z,98172.30
2022-08-28T22:18:00.642Z,98175.45
2022-08-28T22:21:22.796Z,98175.40
2022-08-28T22:24:25.709Z,98174.55
2022-08-28T22:27:29.206Z,98180.34
2022-08-28T22:30:33.574Z,98180.55
2022-08-28T22:33:38.076Z,98181.40
2022-08-28T22:36:41.014Z,98184.98
2022-08-28T22:39:44.116Z,98191.39
2022-08-28T22:42:47.589Z,98188.43
2022-08-28T22:45:50.627Z,98190.33
2022-08-28T22:48:53.876Z,98191.91
2022-08-28T22:51:56.833Z,98194.33
2022-08-28T22:54:59.705Z,98196.65
2022-08-28T22:58:03.524Z,98193.77
2022-08-28T23:01:11.162Z,98192.29
2022-08-28T23:04:16.161Z,98198.59
2022-08-28T23:07:19.149Z,98201.79
2022-08-28T23:10:36.748Z,98200.18
2022-08-28T23:13:45.688Z,98202.84
2022-08-28T23:16:49.360Z,98202.45
2022-08-28T23:19:53.264Z,98201.55
2022-08-28T23:22:58.272Z,98201.73
2022-08-28T23:26:01.546Z,98201.37
2022-08-28T23:29:05.190Z,98198.57
2022-08-28T23:32:08.223Z,98200.86
2022-08-28T23:35:14.926Z,98201.93
2022-08-28T23:38:17.925Z,98205.75
2022-08-28T23:41:20.865Z,98201.17
2022-08-28T23:44:25.040Z,98200.25
2022-08-28T23:47:29.390Z,98202.58
2022-08-28T23:50:33.002Z,98203.69
2022-08-28T23:53:36.642Z,98202.30
2022-08-28T23:56:39.756Z,98204.31
2022-08-28T23:59:43.969Z,98199.47
